Time;durP1;ratioP1;P1;durP2;ratioP2;P2;SDS_P1;SDS_P2;PMS_P1;PMS_P2;Temp;Humidity;BMP_temperature;BMP_pressure;BME280_temperature;BME280_humidity;BME280_pressure;Samples;Min_cycle;Max_cycle;Signal;HPM_P1;HPM_P2
2022/05/27 00:02:00;;;;;;;11.07;9.97;;;15.50;99.90;;;;;;6189648;28;20420;-53
2022/05/27 00:05:05;;;;;;;12.50;11.60;;;15.40;99.90;;;;;;6172832;28;20240;-51
2022/05/27 00:08:08;;;;;;;11.97;10.93;;;15.20;99.90;;;;;;6165832;28;20232;-53
2022/05/27 00:11:12;;;;;;;12.70;11.70;;;15.20;99.90;;;;;;6180806;28;20701;-55
2022/05/27 00:14:16;;;;;;;13.87;12.67;;;15.20;99.90;;;;;;6191979;28;20322;-53
2022/05/27 00:17:19;;;;;;;14.23;12.73;;;15.10;99.90;;;;;;6176703;28;20597;-53
2022/05/27 00:20:22;;;;;;;13.97;12.90;;;15.00;99.90;;;;;;6191832;28;20475;-53
2022/05/27 00:23:26;;;;;;;14.70;13.47;;;14.90;99.90;;;;;;6186219;28;20311;-53
2022/05/27 00:26:29;;;;;;;16.47;14.83;;;14.80;99.90;;;;;;6186706;28;20514;-53
2022/05/27 00:29:33;;;;;;;15.10;13.60;;;14.70;99.90;;;;;;6176104;28;20239;-53
2022/05/27 00:32:56;;;;;;;17.43;13.77;;;14.70;99.90;;;;;;6192505;28;20236;-53
2022/05/27 00:35:59;;;;;;;13.93;12.53;;;14.60;99.90;;;;;;6178339;28;20782;-53
2022/05/27 00:39:03;;;;;;;12.40;11.40;;;14.60;99.90;;;;;;6188189;28;20248;-52
2022/05/27 00:42:07;;;;;;;13.77;12.47;;;14.70;99.90;;;;;;6182212;28;20278;-53
2022/05/27 00:45:15;;;;;;;10.50;9.73;;;14.60;99.90;;;;;;6186061;28;20323;-54
2022/05/27 00:48:21;;;;;;;11.43;10.57;;;14.60;99.90;;;;;;6161214;28;20274;-53
2022/05/27 00:51:28;;;;;;;11.37;10.47;;;14.60;99.90;;;;;;6180341;28;20674;-52
2022/05/27 00:54:32;;;;;;;12.07;10.87;;;14.60;99.90;;;;;;6190233;28;20707;-53
2022/05/27 00:57:39;;;;;;;11.37;10.23;;;14.50;99.90;;;;;;6159080;28;20261;-53
2022/05/27 01:00:43;;;;;;;10.93;10.10;;;14.50;99.90;;;;;;6179093;28;20515;-53
2022/05/27 01:03:47;;;;;;;10.87;9.87;;;14.50;99.90;;;;;;6188956;28;20247;-53
2022/05/27 01:06:50;;;;;;;10.63;9.90;;;14.50;99.90;;;;;;6192777;28;20242;-52
2022/05/27 01:09:53;;;;;;;12.10;11.20;;;14.50;99.90;;;;;;6188254;28;20236;-52
2022/05/27 01:13:12;;;;;;;11.03;10.33;;;14.50;99.90;;;;;;6185386;28;20240;-52
2022/05/27 01:16:30;;;;;;;12.20;11.03;;;14.50;99.90;;;;;;6176809;28;20255;-53
2022/05/27 01:20:22;;;;;;;11.93;10.60;;;14.50;99.90;;;;;;6188153;28;20270;-53
2022/05/27 01:24:00;;;;;;;12.70;11.70;;;14.50;99.90;;;;;;6169819;28;20326;-53
2022/05/27 01:27:32;;;;;;;12.30;11.40;;;14.50;99.90;;;;;;6181393;28;20238;-51
2022/05/27 01:30:42;;;;;;;13.83;12.70;;;14.50;99.90;;;;;;6181125;28;20736;-52
2022/05/27 01:33:53;;;;;;;13.27;12.07;;;14.50;99.90;;;;;;6186156;28;20359;-52
2022/05/27 01:37:05;;;;;;;14.87;13.57;;;14.50;99.90;;;;;;6190850;28;20356;-52
2022/05/27 01:40:12;;;;;;;15.10;13.80;;;14.50;99.90;;;;;;6185234;28;20616;-53
2022/05/27 01:43:20;;;;;;;15.30;13.90;;;14.50;99.90;;;;;;6180996;28;20232;-52
2022/05/27 01:46:30;;;;;;;17.60;14.37;;;14.50;99.90;;;;;;6196847;28;20701;-53
2022/05/27 01:49:36;;;;;;;15.93;14.53;;;14.40;99.90;;;;;;6200948;28;20236;-52
2022/05/27 01:52:45;;;;;;;15.33;14.03;;;14.40;99.90;;;;;;6175938;28;20892;-54
2022/05/27 01:55:55;;;;;;;15.33;14.13;;;14.50;99.90;;;;;;6201099;28;20755;-53
2022/05/27 01:59:02;;;;;;;15.40;13.93;;;14.50;99.90;;;;;;6196018;28;20251;-52
2022/05/27 02:02:11;;;;;;;16.40;15.00;;;14.60;99.90;;;;;;6186771;28;20431;-52
2022/05/27 02:05:17;;;;;;;15.30;14.20;;;14.60;99.90;;;;;;6180776;28;20238;-52
2022/05/27 02:08:22;;;;;;;15.30;14.00;;;14.60;99.90;;;;;;6183469;28;20383;-53
2022/05/27 02:11:25;;;;;;;15.87;14.57;;;14.60;99.90;;;;;;6194023;28;20239;-53
2022/05/27 02:14:37;;;;;;;15.30;14.10;;;14.70;99.90;;;;;;6197137;28;20731;-53
2022/05/27 02:17:46;;;;;;;16.80;14.87;;;14.60;99.90;;;;;;6176411;28;20245;-53
2022/05/27 02:20:55;;;;;;;17.23;15.63;;;14.60;99.90;;;;;;6194315;28;20663;-53
2022/05/27 02:24:02;;;;;;;16.37;15.07;;;14.60;99.90;;;;;;6180842;28;20268;-53
2022/05/27 02:27:08;;;;;;;14.87;13.57;;;14.60;99.90;;;;;;6193037;28;20605;-53
2022/05/27 02:30:16;;;;;;;15.13;13.73;;;14.60;99.90;;;;;;6174472;28;20248;-53
2022/05/27 02:36:51;;;;;;;15.70;14.10;;;14.60;99.90;;;;;;6180818;28;20709;-53
2022/05/27 02:39:55;;;;;;;15.23;13.93;;;14.60;99.90;;;;;;6184878;28;20728;-54
2022/05/27 02:43:09;;;;;;;15.70;14.17;;;14.60;99.90;;;;;;6172176;28;20400;-55
2022/05/27 02:46:20;;;;;;;15.57;13.60;;;14.60;99.90;;;;;;6186525;28;20243;-53
2022/05/27 02:49:31;;;;;;;13.87;12.77;;;14.70;99.90;;;;;;6193049;28;20236;-53
2022/05/27 02:52:41;;;;;;;13.80;12.57;;;14.60;99.90;;;;;;6176934;28;20579;-53
2022/05/27 02:55:58;;;;;;;12.87;11.67;;;14.70;99.90;;;;;;6199066;28;20615;-53
2022/05/27 02:59:02;;;;;;;12.50;11.40;;;14.70;99.90;;;;;;6195454;28;20322;-54
2022/05/27 03:02:08;;;;;;;12.27;11.17;;;14.70;99.90;;;;;;6185527;28;20366;-53
2022/05/27 03:05:15;;;;;;;11.33;10.53;;;14.70;99.90;;;;;;6176337;28;20232;-52
2022/05/27 03:08:24;;;;;;;11.00;10.23;;;14.70;99.90;;;;;;6184850;28;20375;-53
2022/05/27 03:11:41;;;;;;;10.27;9.50;;;14.70;99.90;;;;;;6187936;28;20302;-53
2022/05/27 03:15:22;;;;;;;10.60;9.80;;;14.70;99.90;;;;;;6189821;28;20664;-53
2022/05/27 03:19:01;;;;;;;10.57;9.57;;;14.70;99.90;;;;;;6182336;28;20233;-52
2022/05/27 03:22:16;;;;;;;10.13;9.23;;;14.80;99.90;;;;;;6184084;28;20243;-53
2022/05/27 03:25:25;;;;;;;10.10;9.30;;;14.80;99.90;;;;;;6177421;28;20331;-53
2022/05/27 03:28:32;;;;;;;10.13;9.20;;;14.80;99.90;;;;;;6197211;28;20327;-53
2022/05/27 03:31:40;;;;;;;10.20;9.30;;;14.70;99.90;;;;;;6175631;28;20240;-53
2022/05/27 03:34:50;;;;;;;10.37;9.47;;;14.80;99.90;;;;;;6194919;28;20240;-52
2022/05/27 03:38:00;;;;;;;10.97;10.07;;;14.80;99.90;;;;;;6179499;28;20231;-53
2022/05/27 03:41:08;;;;;;;9.77;8.83;;;14.80;99.90;;;;;;6179722;28;20314;-53
2022/05/27 03:44:15;;;;;;;9.83;9.13;;;14.80;99.90;;;;;;6182226;28;20615;-53
2022/05/27 03:47:18;;;;;;;10.40;9.43;;;14.80;99.90;;;;;;6181560;28;20503;-55
2022/05/27 03:50:23;;;;;;;11.57;9.83;;;14.80;99.90;;;;;;6174647;28;20450;-53
2022/05/27 03:54:03;;;;;;;9.57;8.90;;;14.80;99.90;;;;;;6177354;28;20311;-54
2022/05/27 03:56:50;;;;;;;11.27;9.97;;;14.80;99.90;;;;;;6183014;28;20240;-53
2022/05/27 03:59:53;;;;;;;10.70;9.77;;;14.70;99.90;;;;;;6177955;28;20250;-53
2022/05/27 04:02:56;;;;;;;11.00;9.87;;;14.70;99.90;;;;;;6188645;28;20235;-53
2022/05/27 04:06:00;;;;;;;11.67;10.67;;;14.70;99.90;;;;;;6182240;28;20246;-53
2022/05/27 04:09:04;;;;;;;11.67;10.87;;;14.70;99.90;;;;;;6173569;28;20236;-54
2022/05/27 04:12:07;;;;;;;12.10;11.00;;;14.80;99.90;;;;;;6181524;28;20418;-53
2022/05/27 04:15:10;;;;;;;13.27;12.17;;;14.80;99.90;;;;;;6185714;28;20668;-54
2022/05/27 04:18:13;;;;;;;12.63;11.53;;;14.80;99.90;;;;;;6180534;28;20292;-54
2022/05/27 04:21:16;;;;;;;12.97;11.93;;;14.70;99.90;;;;;;6175474;28;20284;-54
2022/05/27 04:24:21;;;;;;;15.03;12.20;;;14.70;99.90;;;;;;6182546;28;20421;-56
2022/05/27 04:27:24;;;;;;;12.53;11.33;;;14.70;99.90;;;;;;6189564;28;20318;-54
2022/05/27 04:30:27;;;;;;;12.43;11.13;;;14.70;99.90;;;;;;6179747;28;22481;-52
2022/05/27 04:33:30;;;;;;;12.23;11.03;;;14.80;99.90;;;;;;6182295;28;20324;-54
2022/05/27 04:36:33;;;;;;;12.43;11.17;;;14.70;99.90;;;;;;6182494;28;20243;-54
2022/05/27 04:39:37;;;;;;;12.77;11.53;;;14.70;99.90;;;;;;6181063;28;20298;-54
2022/05/27 04:42:40;;;;;;;13.13;12.13;;;14.70;99.90;;;;;;6188102;28;20803;-53
2022/05/27 04:45:43;;;;;;;13.07;12.00;;;14.70;99.90;;;;;;6189910;28;20314;-52
2022/05/27 04:48:49;;;;;;;11.53;10.53;;;14.80;99.90;;;;;;6184884;28;20668;-55
2022/05/27 04:51:52;;;;;;;12.17;11.07;;;14.80;99.90;;;;;;6167184;28;20500;-53
2022/05/27 04:54:58;;;;;;;12.20;11.20;;;14.80;99.90;;;;;;6186433;28;20235;-52
2022/05/27 04:58:01;;;;;;;11.87;10.67;;;14.80;99.90;;;;;;6190655;28;20720;-52
2022/05/27 05:01:04;;;;;;;11.73;10.23;;;14.90;99.90;;;;;;6188137;28;20251;-53
2022/05/27 05:04:07;;;;;;;12.00;11.03;;;14.90;99.90;;;;;;6185377;28;20357;-52
2022/05/27 05:07:10;;;;;;;11.67;10.67;;;14.90;99.90;;;;;;6175033;28;20959;-53
2022/05/27 05:10:17;;;;;;;13.47;11.40;;;14.90;99.90;;;;;;6183658;28;20661;-52
2022/05/27 05:13:20;;;;;;;11.60;10.70;;;14.90;99.90;;;;;;6192227;28;20370;-53
2022/05/27 05:16:23;;;;;;;12.63;11.37;;;14.90;99.90;;;;;;6189829;28;20330;-54
2022/05/27 05:19:26;;;;;;;12.50;10.97;;;15.00;99.90;;;;;;6175938;28;20479;-52
2022/05/27 05:22:28;;;;;;;14.67;11.10;;;14.90;99.90;;;;;;6177783;28;20227;-55
2022/05/27 05:25:33;;;;;;;11.97;10.60;;;14.90;99.90;;;;;;6186570;28;20391;-55
2022/05/27 05:28:37;;;;;;;10.63;9.83;;;14.90;99.90;;;;;;6183453;28;20243;-53
2022/05/27 05:31:40;;;;;;;10.70;9.80;;;14.90;99.90;;;;;;6179121;28;20533;-53
2022/05/27 05:34:42;;;;;;;10.17;9.37;;;14.80;99.90;;;;;;6185097;28;20237;-54
2022/05/27 05:37:45;;;;;;;10.33;8.80;;;14.80;99.90;;;;;;6188123;28;20926;-53
2022/05/27 05:40:49;;;;;;;11.97;8.83;;;14.80;99.90;;;;;;6184860;28;20315;-53
2022/05/27 05:43:52;;;;;;;8.50;7.83;;;14.80;99.90;;;;;;6181515;28;20236;-55
2022/05/27 05:46:55;;;;;;;6.33;5.93;;;14.70;99.90;;;;;;6195657;28;20409;-54
2022/05/27 05:49:58;;;;;;;7.50;6.03;;;14.70;99.90;;;;;;6180182;28;20325;-54
2022/05/27 05:53:01;;;;;;;6.33;5.70;;;14.60;99.90;;;;;;6182482;28;20262;-53
2022/05/27 05:56:06;;;;;;;6.53;4.90;;;14.50;99.90;;;;;;6190600;28;20250;-54
2022/05/27 05:59:09;;;;;;;5.00;4.70;;;14.40;99.90;;;;;;6172883;28;20290;-53
2022/05/27 06:02:12;;;;;;;4.63;4.33;;;14.40;99.90;;;;;;6184880;28;20302;-53
2022/05/27 06:05:15;;;;;;;4.80;4.30;;;14.50;99.90;;;;;;6188453;28;21111;-54
2022/05/27 06:08:18;;;;;;;4.10;4.00;;;14.50;99.90;;;;;;6188120;28;20237;-53
2022/05/27 06:11:22;;;;;;;4.13;3.77;;;14.50;99.90;;;;;;6180879;28;20242;-54
2022/05/27 06:14:25;;;;;;;4.00;3.70;;;14.50;99.90;;;;;;6173782;28;20312;-53
2022/05/27 06:17:27;;;;;;;5.17;3.90;;;14.50;99.90;;;;;;6183753;28;20585;-53
2022/05/27 06:20:30;;;;;;;4.27;3.97;;;14.50;99.90;;;;;;6178451;28;20772;-53
2022/05/27 06:23:33;;;;;;;4.37;4.07;;;14.40;99.90;;;;;;6186618;28;20252;-53
2022/05/27 06:26:38;;;;;;;4.93;4.47;;;14.50;99.90;;;;;;6187351;28;20248;-53
2022/05/27 06:36:22;;;;;;;6.20;4.47;;;15.00;99.90;;;;;;6189055;28;20310;-54
2022/05/27 06:39:25;;;;;;;5.47;4.97;;;15.00;99.90;;;;;;6192286;28;20713;-52
2022/05/27 06:42:32;;;;;;;4.73;4.53;;;15.00;99.90;;;;;;6187965;28;20258;-54
2022/05/27 06:45:40;;;;;;;5.20;4.70;;;15.00;99.90;;;;;;6184956;28;20608;-54
2022/05/27 06:48:42;;;;;;;5.03;4.83;;;15.20;99.90;;;;;;6188473;28;20325;-52
2022/05/27 06:51:46;;;;;;;6.90;4.63;;;15.30;99.90;;;;;;6178312;28;20680;-52
2022/05/27 06:54:49;;;;;;;4.60;4.27;;;15.50;99.90;;;;;;6184259;28;20317;-53
2022/05/27 06:57:53;;;;;;;4.73;4.37;;;15.70;99.90;;;;;;6193766;28;20259;-53
2022/05/27 07:00:55;;;;;;;5.13;4.03;;;15.80;99.90;;;;;;6187190;28;20266;-52
2022/05/27 07:03:58;;;;;;;5.77;3.60;;;16.00;99.90;;;;;;6188610;28;20243;-53
2022/05/27 07:07:04;;;;;;;4.47;4.07;;;16.00;99.20;;;;;;6185008;28;20298;-53
2022/05/27 07:10:07;;;;;;;4.50;3.60;;;15.90;92.60;;;;;;6182024;28;20338;-53
2022/05/27 07:13:13;;;;;;;4.33;3.43;;;15.90;98.30;;;;;;6178286;28;20787;-54
2022/05/27 07:16:16;;;;;;;6.80;3.90;;;16.00;94.20;;;;;;6183294;28;20251;-53
2022/05/27 07:19:20;;;;;;;5.53;3.60;;;16.10;78.40;;;;;;6181739;28;20240;-53
2022/05/27 07:22:25;;;;;;;3.83;3.47;;;16.20;82.80;;;;;;6183631;28;20531;-53
2022/05/27 07:25:28;;;;;;;3.73;3.43;;;16.20;73.90;;;;;;6184544;28;20240;-52
2022/05/27 07:28:32;;;;;;;4.23;3.83;;;16.20;85.40;;;;;;6186482;28;20709;-52
2022/05/27 07:31:37;;;;;;;5.13;3.63;;;16.30;40.00;;;;;;6181250;28;20314;-52
2022/05/27 07:34:39;;;;;;;4.27;3.87;;;16.40;35.90;;;;;;6185643;28;20351;-53
2022/05/27 07:37:42;;;;;;;4.57;3.87;;;16.50;49.70;;;;;;6188313;28;20371;-53
2022/05/27 07:40:45;;;;;;;3.40;3.10;;;16.70;34.10;;;;;;6180213;28;20995;-53
2022/05/27 07:43:50;;;;;;;5.67;3.43;;;16.80;1.00;;;;;;6178841;28;20240;-52
2022/05/27 07:46:53;;;;;;;6.40;3.97;;;16.70;1.00;;;;;;6189162;28;20696;-55
2022/05/27 07:49:57;;;;;;;3.27;2.83;;;16.70;1.00;;;;;;6183138;28;20258;-52
2022/05/27 07:53:00;;;;;;;4.43;3.07;;;16.70;1.00;;;;;;6184850;28;20239;-51
2022/05/27 07:56:03;;;;;;;5.03;2.87;;;16.70;1.00;;;;;;6190518;28;20251;-52
2022/05/27 07:59:07;;;;;;;4.37;3.10;;;16.60;1.00;;;;;;6187309;28;20412;-53
2022/05/27 08:02:10;;;;;;;4.20;3.00;;;16.60;1.00;;;;;;6178504;28;20287;-53
2022/05/27 08:05:15;;;;;;;6.43;3.07;;;16.60;1.00;;;;;;6176529;28;20334;-55
2022/05/27 08:08:19;;;;;;;3.47;2.63;;;16.70;1.00;;;;;;6186727;28;20241;-54
2022/05/27 08:11:22;;;;;;;5.20;3.00;;;16.80;1.00;;;;;;6186693;28;20254;-52
2022/05/27 08:14:26;;;;;;;5.70;3.17;;;16.90;1.00;;;;;;6197572;28;20270;-53
2022/05/27 08:17:29;;;;;;;3.50;2.40;;;16.70;1.00;;;;;;6175686;28;20858;-52
2022/05/27 08:20:34;;;;;;;4.53;3.13;;;16.70;1.00;;;;;;6175701;28;20239;-54
2022/05/27 08:23:36;;;;;;;4.57;3.93;;;16.80;1.00;;;;;;6180847;28;20548;-55
2022/05/27 08:26:39;;;;;;;6.50;3.60;;;16.80;1.00;;;;;;6192610;28;20251;-55
2022/05/27 08:29:43;;;;;;;5.47;3.13;;;16.80;1.00;;;;;;6176011;28;20232;-54
2022/05/27 08:32:47;;;;;;;3.70;3.00;;;16.80;1.00;;;;;;6187939;28;20240;-59
2022/05/27 08:39:13;;;;;;;6.00;2.77;;;17.00;1.00;;;;;;6180640;28;20332;-53
2022/05/27 08:42:26;;;;;;;2.97;2.77;;;16.80;1.00;;;;;;6187418;28;20255;-53
2022/05/27 08:45:36;;;;;;;3.47;3.10;;;16.80;1.00;;;;;;6184472;28;20257;-53
2022/05/27 08:48:44;;;;;;;4.83;2.90;;;17.00;1.00;;;;;;6179607;28;20609;-51
2022/05/27 08:52:12;;;;;;;5.87;3.00;;;17.20;1.00;;;;;;6173248;28;20236;-55
2022/05/27 09:02:14;;;;;;;5.10;2.90;;;16.90;1.00;;;;;;6175638;28;20242;-53
2022/05/27 09:05:22;;;;;;;4.33;2.93;;;16.70;1.00;;;;;;6173794;28;20242;-54
2022/05/27 09:08:26;;;;;;;5.13;2.90;;;16.70;1.00;;;;;;6184894;28;20478;-54
2022/05/27 09:11:40;;;;;;;3.93;2.90;;;16.80;1.00;;;;;;6184546;28;20239;-52
2022/05/27 09:14:50;;;;;;;3.43;2.70;;;17.10;1.00;;;;;;6186692;28;20252;-54
2022/05/27 09:18:05;;;;;;;6.03;3.43;;;17.10;1.00;;;;;;6180867;28;20752;-54
2022/05/27 09:21:16;;;;;;;3.57;2.67;;;17.10;1.00;;;;;;6183057;28;20609;-54
2022/05/27 09:24:43;;;;;;;3.80;2.60;;;17.10;1.00;;;;;;6182314;28;20319;-53
2022/05/27 09:27:57;;;;;;;9.07;2.77;;;17.30;1.00;;;;;;6180122;28;21123;-55
2022/05/27 09:31:04;;;;;;;2.97;2.77;;;17.50;1.00;;;;;;6188274;28;20658;-53
2022/05/27 09:34:10;;;;;;;4.77;2.60;;;17.70;1.00;;;;;;6156575;28;20651;-49
2022/05/27 09:37:21;;;;;;;6.77;3.07;;;17.90;1.00;;;;;;6171586;28;20315;-51
2022/05/27 09:40:34;;;;;;;5.93;3.50;;;18.10;1.00;;;;;;6182075;28;20374;-52
2022/05/27 09:43:43;;;;;;;4.63;2.63;;;18.30;1.00;;;;;;6187723;28;20665;-53
2022/05/27 09:46:46;;;;;;;5.53;2.83;;;18.20;1.00;;;;;;6179615;28;20244;-54
2022/05/27 09:49:56;;;;;;;4.70;3.00;;;18.30;1.00;;;;;;6182367;28;20312;-51
2022/05/27 09:53:00;;;;;;;5.23;3.00;;;18.30;1.00;;;;;;6177061;28;20240;-54
2022/05/27 09:56:07;;;;;;;3.60;3.07;;;18.30;1.00;;;;;;6187895;28;20250;-53
2022/05/27 09:59:25;;;;;;;7.80;3.03;;;18.30;1.00;;;;;;6183610;28;20259;-54
2022/05/27 10:02:30;;;;;;;4.33;2.67;;;18.50;1.00;;;;;;6189915;28;20252;-52
2022/05/27 10:05:35;;;;;;;5.03;2.80;;;18.50;1.00;;;;;;6186244;28;20232;-53
2022/05/27 10:08:43;;;;;;;4.53;3.00;;;18.40;1.00;;;;;;6188256;28;20267;-52
2022/05/27 10:11:51;;;;;;;10.33;3.00;;;18.50;1.00;;;;;;6185195;28;20737;-52
2022/05/27 10:14:55;;;;;;;6.53;2.80;;;18.40;1.00;;;;;;6196171;28;20323;-53
2022/05/27 10:18:14;;;;;;;7.40;3.17;;;18.60;1.00;;;;;;6186522;28;20302;-54
2022/05/27 10:21:20;;;;;;;5.07;3.07;;;19.00;1.00;;;;;;6179990;28;20248;-53
2022/05/27 10:24:26;;;;;;;4.50;2.90;;;18.90;1.00;;;;;;6200068;28;20366;-57
2022/05/27 10:27:35;;;;;;;4.53;3.00;;;18.80;1.00;;;;;;6182059;28;20441;-55
2022/05/27 10:30:41;;;;;;;13.67;3.43;;;18.80;1.00;;;;;;6188750;28;20694;-54
2022/05/27 10:33:47;;;;;;;5.60;3.13;;;18.60;1.00;;;;;;6188816;28;20785;-54
2022/05/27 10:36:57;;;;;;;4.17;3.03;;;18.30;1.00;;;;;;6180816;28;20486;-55
2022/05/27 10:40:15;;;;;;;8.23;3.20;;;18.20;1.00;;;;;;6184369;28;20256;-53
2022/05/27 10:43:30;;;;;;;7.97;3.13;;;18.10;1.00;;;;;;6179737;28;20232;-55
2022/05/27 10:46:39;;;;;;;8.40;3.00;;;18.00;1.00;;;;;;6198320;28;20250;-55
2022/05/27 10:49:56;;;;;;;9.37;3.37;;;18.10;1.00;;;;;;6191958;28;20243;-53
2022/05/27 10:53:16;;;;;;;4.33;2.83;;;18.30;1.00;;;;;;6189820;28;20248;-54
2022/05/27 10:56:34;;;;;;;7.33;3.60;;;18.30;1.00;;;;;;6196444;28;20310;-53
2022/05/27 11:03:31;;;;;;;4.47;2.83;;;18.20;1.00;;;;;;6128191;28;20336;-54
2022/05/27 11:06:51;;;;;;;5.10;3.10;;;18.20;1.00;;;;;;6180765;28;20412;-53
2022/05/27 11:10:08;;;;;;;4.67;2.60;;;18.20;1.00;;;;;;6185100;28;20335;-53
2022/05/27 11:17:10;;;;;;;6.90;2.80;;;18.70;1.00;;;;;;6188308;28;20319;-54
2022/05/27 11:20:43;;;;;;;3.30;2.90;;;18.60;1.00;;;;;;6180841;28;20271;-54
2022/05/27 11:24:10;;;;;;;5.90;2.53;;;18.40;1.00;;;;;;6178548;28;20310;-54
2022/05/27 11:27:24;;;;;;;5.47;2.80;;;18.30;1.00;;;;;;6179544;28;20566;-55
2022/05/27 11:30:35;;;;;;;5.80;3.37;;;18.20;1.00;;;;;;6185283;28;20319;-54
2022/05/27 11:33:44;;;;;;;9.97;3.20;;;18.00;1.00;;;;;;6190583;28;20323;-55
2022/05/27 11:36:58;;;;;;;10.33;3.13;;;17.80;1.00;;;;;;6178308;28;20267;-55
2022/05/27 11:40:21;;;;;;;6.70;3.40;;;17.90;1.00;;;;;;6176069;28;20232;-55
2022/05/27 11:43:40;;;;;;;6.90;3.50;;;18.10;1.00;;;;;;6180586;28;20255;-54
2022/05/27 11:47:18;;;;;;;6.63;3.57;;;18.40;1.00;;;;;;6182092;28;20280;-52
2022/05/27 11:50:35;;;;;;;5.40;3.20;;;18.50;1.00;;;;;;6175224;28;20397;-53
2022/05/27 11:53:54;;;;;;;4.30;3.33;;;18.40;1.00;;;;;;6190238;28;20260;-55
2022/05/27 11:57:15;;;;;;;3.20;2.90;;;18.10;1.00;;;;;;6191671;28;20298;-55
2022/05/27 12:00:24;;;;;;;4.40;3.00;;;17.70;1.00;;;;;;6184908;28;20278;-54
2022/05/27 12:03:36;;;;;;;3.97;3.20;;;17.20;1.00;;;;;;6195545;28;20319;-52
2022/05/27 12:06:45;;;;;;;6.00;3.30;;;16.60;1.00;;;;;;6189095;28;20641;-54
2022/05/27 12:09:52;;;;;;;5.87;3.30;;;16.10;1.00;;;;;;6196649;28;20574;-53
2022/05/27 12:13:01;;;;;;;5.03;3.43;;;16.20;1.00;;;;;;6187434;28;20252;-53
2022/05/27 12:16:09;;;;;;;5.00;3.50;;;16.20;1.00;;;;;;6182605;28;20247;-54
2022/05/27 12:19:18;;;;;;;3.23;2.97;;;16.10;1.00;;;;;;6171602;28;20233;-58
2022/05/27 12:22:25;;;;;;;8.53;3.70;;;16.30;1.00;;;;;;6180288;28;20316;-53
2022/05/27 12:25:30;;;;;;;6.40;3.57;;;16.30;1.00;;;;;;6193072;28;20241;-54
2022/05/27 12:28:40;;;;;;;5.40;2.80;;;16.60;1.00;;;;;;6185381;28;20385;-53
2022/05/27 12:31:44;;;;;;;4.10;2.73;;;16.70;1.00;;;;;;6171230;28;20236;-53
2022/05/27 12:34:48;;;;;;;3.93;2.93;;;16.90;1.00;;;;;;6181372;28;20737;-51
2022/05/27 12:37:57;;;;;;;3.47;3.17;;;17.10;1.00;;;;;;6188469;28;20325;-54
2022/05/27 12:41:04;;;;;;;5.40;3.30;;;17.60;1.00;;;;;;6189800;28;20235;-53
2022/05/27 12:44:25;;;;;;;5.57;2.93;;;17.90;1.00;;;;;;6183247;28;20242;-55
2022/05/27 12:47:35;;;;;;;6.40;3.20;;;18.10;1.00;;;;;;6183437;28;20520;-54
2022/05/27 12:50:40;;;;;;;5.93;3.10;;;18.30;1.00;;;;;;6184519;28;20314;-55
2022/05/27 12:53:46;;;;;;;5.20;3.27;;;18.30;1.00;;;;;;6186275;28;20309;-53
2022/05/27 13:03:59;;;;;;;5.10;3.23;;;17.60;1.00;;;;;;6188719;28;20287;-53
2022/05/27 13:07:07;;;;;;;4.93;2.63;;;17.70;1.00;;;;;;6181751;28;20984;-54
2022/05/27 13:10:35;;;;;;;7.07;3.20;;;17.70;1.00;;;;;;6186162;28;20239;-52
2022/05/27 13:13:38;;;;;;;2.80;2.60;;;17.80;1.00;;;;;;6185791;28;20960;-56
2022/05/27 13:16:46;;;;;;;7.50;2.70;;;17.90;1.00;;;;;;6187277;28;20711;-54
2022/05/27 13:19:53;;;;;;;5.43;2.70;;;18.00;1.00;;;;;;6184312;28;20248;-54
2022/05/27 13:22:59;;;;;;;4.57;2.53;;;18.10;1.00;;;;;;6186529;28;20318;-54
2022/05/27 13:26:07;;;;;;;5.93;2.90;;;18.20;1.00;;;;;;6192495;28;20337;-54
2022/05/27 13:29:24;;;;;;;9.03;2.90;;;18.30;1.00;;;;;;6179652;28;20245;-54
2022/05/27 13:32:29;;;;;;;4.33;2.90;;;18.50;1.00;;;;;;6198002;28;20737;-53
2022/05/27 13:35:40;;;;;;;3.30;2.60;;;18.60;1.00;;;;;;6183462;28;20243;-53
2022/05/27 13:38:45;;;;;;;5.97;2.40;;;19.00;1.00;;;;;;6185330;28;20236;-55
2022/05/27 13:41:49;;;;;;;4.10;2.50;;;19.10;1.00;;;;;;6180828;28;20250;-53
2022/05/27 13:45:01;;;;;;;3.47;2.90;;;19.10;1.00;;;;;;6185586;28;20334;-55
2022/05/27 13:48:28;;;;;;;7.03;3.00;;;18.90;1.00;;;;;;6179898;28;20753;-54
2022/05/27 13:51:41;;;;;;;4.33;2.63;;;18.80;1.00;;;;;;6184119;28;20254;-54
2022/05/27 13:54:44;;;;;;;4.23;2.70;;;18.80;1.00;;;;;;6191910;28;20263;-53
2022/05/27 13:57:47;;;;;;;6.27;3.10;;;19.10;1.00;;;;;;6193967;28;20240;-53
2022/05/27 14:00:50;;;;;;;3.97;3.13;;;19.30;1.00;;;;;;6183328;28;20363;-53
2022/05/27 14:04:06;;;;;;;2.50;2.40;;;19.40;1.00;;;;;;6199623;28;20239;-56
2022/05/27 14:07:21;;;;;;;3.17;2.70;;;19.50;1.00;;;;;;6188845;28;20256;-55
2022/05/27 14:10:28;;;;;;;3.07;2.93;;;19.50;1.00;;;;;;6188642;28;20317;-54
2022/05/27 14:13:33;;;;;;;2.73;2.50;;;19.50;1.00;;;;;;6193491;28;20246;-53
2022/05/27 14:16:35;;;;;;;7.63;2.83;;;19.40;1.00;;;;;;6190975;28;20781;-53
2022/05/27 14:19:38;;;;;;;2.80;2.60;;;19.50;1.00;;;;;;6180452;28;20240;-55
2022/05/27 14:22:49;;;;;;;9.67;2.60;;;19.60;1.00;;;;;;6190472;28;20240;-54
2022/05/27 14:25:59;;;;;;;6.63;2.60;;;19.70;1.00;;;;;;6184917;28;20240;-55
2022/05/27 14:29:02;;;;;;;4.67;2.40;;;19.60;1.00;;;;;;6184689;28;20272;-58
2022/05/27 14:32:08;;;;;;;10.50;3.73;;;19.40;1.00;;;;;;6193026;28;20286;-54
2022/05/27 14:35:22;;;;;;;8.23;3.60;;;19.10;1.00;;;;;;6187598;28;20359;-54
2022/05/27 14:38:32;;;;;;;6.33;3.20;;;18.60;1.00;;;;;;6183452;28;20237;-53
2022/05/27 14:41:39;;;;;;;14.00;3.00;;;18.30;1.00;;;;;;6184643;28;20379;-56
2022/05/27 14:44:45;;;;;;;8.37;2.97;;;18.30;1.00;;;;;;6194207;28;20306;-57
2022/05/27 14:47:47;;;;;;;11.13;3.47;;;18.20;1.00;;;;;;6190393;28;20372;-53
2022/05/27 14:50:51;;;;;;;3.20;2.50;;;18.40;1.00;;;;;;6178561;28;20231;-54
2022/05/27 14:54:07;;;;;;;8.33;3.00;;;18.50;1.00;;;;;;6178402;28;20299;-53
2022/05/27 14:57:15;;;;;;;2.97;2.73;;;18.60;1.00;;;;;;6194764;28;20244;-55
2022/05/27 15:00:29;;;;;;;4.93;2.67;;;18.60;1.00;;;;;;6191973;28;20231;-53
2022/05/27 15:03:35;;;;;;;5.87;2.70;;;18.40;1.00;;;;;;6191845;28;20720;-55
2022/05/27 15:06:40;;;;;;;4.83;2.50;;;18.30;1.00;;;;;;6186816;28;20740;-55
2022/05/27 15:09:44;;;;;;;7.03;3.13;;;18.40;1.00;;;;;;6192409;28;20370;-54
2022/05/27 15:12:47;;;;;;;7.50;3.17;;;18.60;1.00;;;;;;6186393;28;20260;-55
2022/05/27 15:15:50;;;;;;;6.33;2.90;;;18.70;1.00;;;;;;6195080;28;20235;-55
2022/05/27 15:18:56;;;;;;;8.93;2.60;;;18.90;1.00;;;;;;6182219;28;20710;-54
2022/05/27 15:22:05;;;;;;;10.90;2.87;;;19.00;1.00;;;;;;6181898;28;20280;-55
2022/05/27 15:25:12;;;;;;;11.53;3.10;;;19.10;1.00;;;;;;6189198;28;20661;-55
2022/05/27 15:35:07;;;;;;;14.13;2.73;;;18.50;1.00;;;;;;6184028;28;20326;-53
2022/05/27 15:38:11;;;;;;;16.53;3.13;;;18.10;1.00;;;;;;6188065;28;20683;-55
2022/05/27 15:41:17;;;;;;;6.97;3.00;;;17.60;1.00;;;;;;6174943;28;20642;-58
2022/05/27 15:44:20;;;;;;;3.73;2.37;;;17.20;1.00;;;;;;6194113;28;20294;-55
2022/05/27 15:47:24;;;;;;;4.83;2.30;;;16.80;1.00;;;;;;6178954;28;20241;-55
2022/05/27 15:50:27;;;;;;;6.50;2.40;;;16.40;1.00;;;;;;6179404;28;20434;-55
2022/05/27 15:53:31;;;;;;;3.23;2.20;;;16.20;1.00;;;;;;6193947;28;20250;-54
2022/05/27 15:56:35;;;;;;;2.73;2.40;;;16.20;1.00;;;;;;6180900;28;20334;-55
2022/05/27 15:59:38;;;;;;;4.03;2.43;;;16.20;1.00;;;;;;6180818;28;20242;-53
2022/05/27 16:02:42;;;;;;;3.60;2.63;;;16.20;1.00;;;;;;6183717;28;20227;-55
2022/05/27 16:05:45;;;;;;;3.40;2.43;;;16.40;1.00;;;;;;6192772;28;20613;-54
2022/05/27 16:08:48;;;;;;;2.93;2.50;;;16.80;1.00;;;;;;6184737;28;20236;-53
2022/05/27 16:11:52;;;;;;;8.10;2.97;;;16.80;1.00;;;;;;6184004;28;20717;-52
2022/05/27 16:14:55;;;;;;;6.33;2.57;;;17.00;1.00;;;;;;6192555;28;20247;-54
2022/05/27 16:17:57;;;;;;;2.70;2.40;;;17.00;1.00;;;;;;6179533;28;20231;-55
2022/05/27 16:21:00;;;;;;;3.77;2.30;;;17.10;1.00;;;;;;6166878;28;20419;-54
2022/05/27 16:24:03;;;;;;;3.70;2.40;;;16.90;1.00;;;;;;6193096;28;20359;-54
2022/05/27 16:27:07;;;;;;;3.60;2.53;;;16.70;1.00;;;;;;6193412;28;20633;-54
2022/05/27 16:30:17;;;;;;;5.93;2.60;;;16.70;1.00;;;;;;6176685;28;20424;-54
2022/05/27 16:33:20;;;;;;;3.90;2.37;;;16.70;1.00;;;;;;6176660;28;20283;-59
2022/05/27 16:36:23;;;;;;;7.10;2.57;;;16.70;1.00;;;;;;6176552;28;20769;-53
2022/05/27 16:39:25;;;;;;;4.23;3.17;;;16.80;1.00;;;;;;6182739;28;20362;-54
2022/05/27 16:42:29;;;;;;;4.67;2.30;;;16.90;1.00;;;;;;6182859;28;20271;-53
2022/05/27 16:45:32;;;;;;;5.27;2.70;;;16.90;1.00;;;;;;6185569;28;20705;-56
2022/05/27 16:48:35;;;;;;;4.33;2.40;;;16.90;1.00;;;;;;6182723;28;20248;-55
2022/05/27 16:51:38;;;;;;;5.47;2.93;;;17.00;1.00;;;;;;6184950;28;20248;-54
2022/05/27 16:54:41;;;;;;;4.33;2.57;;;17.00;1.00;;;;;;6178360;28;20243;-54
2022/05/27 16:57:45;;;;;;;7.40;2.97;;;17.00;1.00;;;;;;6184096;28;20248;-54